createdAt,value
2023-02-24T00:02:09.048Z,38.97
2023-02-24T00:04:42.019Z,38.76
2023-02-24T00:07:17.939Z,38.57
2023-02-24T00:09:58.871Z,38.25
2023-02-24T00:12:30.168Z,37.99
2023-02-24T00:14:59.203Z,38.84
2023-02-24T00:17:31.187Z,38.07
2023-02-24T00:20:00.272Z,38.17
2023-02-24T00:22:29.316Z,38.30
2023-02-24T00:25:02.141Z,38.19
2023-02-24T00:27:33.434Z,36.81
2023-02-24T00:30:06.185Z,36.92
2023-02-24T00:32:37.233Z,35.45
2023-02-24T00:35:06.923Z,35.77
2023-02-24T00:37:35.909Z,36.14
2023-02-24T00:40:11.898Z,36.58
2023-02-24T00:42:45.544Z,35.60
2023-02-24T00:45:17.847Z,35.60
2023-02-24T00:47:47.362Z,35.49
2023-02-24T00:50:16.407Z,35.08
2023-02-24T00:52:45.449Z,35.05
2023-02-24T00:55:15.951Z,35.04
2023-02-24T00:57:48.936Z,35.41
2023-02-24T01:00:18.716Z,36.45
2023-02-24T01:02:50.454Z,36.97
2023-02-24T01:05:20.460Z,38.19
2023-02-24T01:07:49.402Z,38.91
2023-02-24T01:10:19.086Z,39.06
2023-02-24T01:12:50.952Z,39.28
2023-02-24T01:15:22.705Z,41.67
2023-02-24T01:17:51.901Z,40.91
2023-02-24T01:20:20.991Z,41.75
2023-02-24T01:22:54.459Z,40.83
2023-02-24T01:25:23.623Z,42.46
2023-02-24T01:27:57.091Z,42.90
2023-02-24T01:30:26.047Z,42.77
2023-02-24T01:32:55.036Z,42.18
2023-02-24T01:35:25.187Z,43.15
2023-02-24T01:37:54.166Z,42.75
2023-02-24T01:40:23.075Z,43.87
2023-02-24T01:42:59.523Z,44.40
2023-02-24T01:45:37.538Z,45.98
2023-02-24T01:48:13.727Z,45.96
2023-02-24T01:50:43.022Z,47.67
2023-02-24T01:53:12.682Z,47.04
2023-02-24T01:55:47.959Z,48.82
2023-02-24T01:58:26.148Z,48.25
2023-02-24T02:00:58.671Z,47.49
2023-02-24T02:03:34.700Z,48.67
2023-02-24T02:06:12.580Z,49.31
2023-02-24T02:08:43.978Z,47.75
2023-02-24T02:11:23.581Z,48.59
2023-02-24T02:13:54.538Z,48.41
2023-02-24T02:16:46.512Z,48.81
2023-02-24T02:19:27.427Z,48.56
2023-02-24T02:22:07.690Z,49.26
2023-02-24T02:25:26.334Z,48.94
2023-02-24T02:28:32.398Z,49.57
2023-02-24T02:31:32.978Z,49.96
2023-02-24T02:34:17.803Z,50.25
2023-02-24T02:37:06.585Z,49.01
2023-02-24T02:40:01.296Z,50.03
2023-02-24T02:43:14.985Z,52.23
2023-02-24T02:45:48.439Z,51.22
2023-02-24T02:48:23.087Z,50.83
2023-02-24T02:51:05.060Z,50.86
2023-02-24T02:53:38.368Z,50.84
2023-02-24T02:56:14.082Z,49.24
2023-02-24T02:58:49.764Z,51.02
2023-02-24T03:01:22.556Z,52.17
2023-02-24T03:03:58.113Z,48.97
2023-02-24T03:06:49.681Z,50.63
2023-02-24T03:09:33.586Z,52.11
2023-02-24T03:12:13.590Z,51.46
2023-02-24T03:14:52.531Z,52.23
2023-02-24T03:17:30.279Z,52.50
2023-02-24T03:20:21.061Z,51.49
2023-02-24T03:23:12.643Z,51.56
2023-02-24T03:25:52.857Z,52.31
2023-02-24T03:28:34.860Z,50.92
2023-02-24T03:31:19.186Z,50.49
2023-02-24T03:34:04.535Z,50.37
2023-02-24T03:36:34.075Z,51.62
2023-02-24T03:39:06.504Z,50.19
2023-02-24T03:42:02.096Z,49.08
2023-02-24T03:44:34.201Z,50.95
2023-02-24T03:47:04.208Z,51.89
2023-02-24T03:49:33.610Z,52.14
2023-02-24T03:52:25.020Z,50.61
2023-02-24T03:55:18.012Z,50.18
2023-02-24T03:58:15.262Z,51.04
2023-02-24T04:00:56.390Z,51.96
2023-02-24T04:03:39.192Z,53.67
2023-02-24T04:06:42.961Z,53.12
2023-02-24T04:09:30.078Z,51.20
2023-02-24T04:12:19.585Z,52.71
2023-02-24T04:15:27.806Z,50.24
2023-02-24T04:18:19.604Z,51.19
2023-02-24T04:20:54.030Z,50.32
2023-02-24T04:23:28.136Z,51.30
2023-02-24T04:25:57.123Z,51.51
2023-02-24T04:28:29.243Z,51.32
2023-02-24T04:31:10.967Z,52.73
2023-02-24T04:33:41.887Z,51.02
2023-02-24T04:36:13.689Z,52.65
2023-02-24T04:38:43.760Z,52.45
2023-02-24T04:41:22.053Z,51.44
2023-02-24T04:43:51.809Z,50.74
2023-02-24T04:46:21.507Z,52.43
2023-02-24T04:48:51.830Z,52.09
2023-02-24T04:51:21.635Z,53.05
2023-02-24T04:53:51.023Z,50.70
2023-02-24T04:56:20.150Z,50.84
2023-02-24T04:58:49.445Z,51.57
2023-02-24T05:01:18.780Z,52.18
2023-02-24T05:03:48.452Z,52.40
2023-02-24T05:06:18.744Z,52.87
2023-02-24T05:08:48.000Z,55.30
2023-02-24T05:11:19.451Z,54.04
2023-02-24T05:13:50.050Z,51.45
2023-02-24T05:16:21.363Z,52.43
2023-02-24T05:19:17.048Z,51.64
2023-02-24T05:21:52.472Z,53.61
2023-02-24T05:24:21.693Z,51.78
2023-02-24T05:26:51.161Z,50.22
2023-02-24T05:29:20.091Z,52.10
2023-02-24T05:31:53.989Z,51.97
2023-02-24T05:34:25.171Z,51.94
2023-02-24T05:36:54.781Z,53.13
2023-02-24T05:39:26.072Z,51.64
2023-02-24T05:41:57.715Z,50.37
2023-02-24T05:44:28.173Z,51.48
2023-02-24T05:47:01.460Z,51.40
2023-02-24T05:49:34.742Z,52.11
2023-02-24T05:52:09.740Z,53.60
2023-02-24T05:54:44.089Z,51.51
2023-02-24T05:57:17.890Z,51.54
2023-02-24T05:59:47.154Z,53.38
2023-02-24T06:02:18.269Z,54.18
2023-02-24T06:04:54.938Z,54.18
2023-02-24T06:07:27.089Z,51.50
2023-02-24T06:10:00.973Z,50.80
2023-02-24T06:12:32.761Z,52.03
2023-02-24T06:15:03.164Z,51.70
2023-02-24T06:17:32.133Z,50.85
2023-02-24T06:20:01.278Z,51.45
2023-02-24T06:22:44.292Z,50.61
2023-02-24T06:25:31.960Z,51.03
2023-02-24T06:28:02.630Z,50.50
2023-02-24T06:30:33.589Z,50.42
2023-02-24T06:33:02.567Z,51.61
2023-02-24T06:35:33.691Z,51.24
2023-02-24T06:38:02.754Z,52.35
2023-02-24T06:40:32.247Z,53.23
2023-02-24T06:43:01.254Z,53.38
2023-02-24T06:45:31.729Z,53.08
2023-02-24T06:48:00.669Z,51.40
2023-02-24T06:50:29.654Z,52.36
2023-02-24T06:53:01.588Z,51.54
2023-02-24T06:55:30.545Z,50.21
2023-02-24T06:58:05.060Z,52.07
2023-02-24T07:00:39.421Z,51.42
2023-02-24T07:03:16.398Z,50.93
2023-02-24T07:05:54.838Z,51.11
2023-02-24T07:08:28.129Z,52.35
2023-02-24T07:11:00.669Z,51.97
2023-02-24T07:13:30.800Z,50.83
2023-02-24T07:16:08.004Z,50.72
2023-02-24T07:18:41.369Z,51.60
2023-02-24T07:21:15.004Z,52.52
2023-02-24T07:23:50.443Z,52.59
2023-02-24T07:26:23.985Z,50.48
2023-02-24T07:28:55.787Z,51.83
2023-02-24T07:31:26.861Z,52.59
2023-02-24T07:34:02.852Z,52.83
2023-02-24T07:36:35.834Z,50.47
2023-02-24T07:39:04.884Z,50.36
2023-02-24T07:41:36.845Z,51.23
2023-02-24T07:44:10.261Z,51.22
2023-02-24T07:46:39.245Z,51.98
2023-02-24T07:49:10.791Z,51.65
2023-02-24T07:51:43.865Z,50.76
2023-02-24T07:54:13.743Z,51.63
2023-02-24T07:56:57.269Z,51.65
2023-02-24T07:59:33.149Z,51.56
2023-02-24T08:02:05.436Z,52.03
2023-02-24T08:04:37.130Z,53.04
2023-02-24T08:07:06.072Z,52.74
2023-02-24T08:10:07.850Z,52.19
2023-02-24T08:12:43.311Z,52.80
2023-02-24T08:15:24.522Z,53.49
2023-02-24T08:18:00.202Z,51.91
2023-02-24T08:20:37.011Z,52.36
2023-02-24T08:23:09.450Z,53.86
2023-02-24T08:25:39.223Z,54.22
2023-02-24T08:28:14.055Z,53.35
2023-02-24T08:30:47.990Z,54.50
2023-02-24T08:33:30.817Z,53.59
2023-02-24T08:36:03.057Z,51.92
2023-02-24T08:38:45.371Z,53.40
2023-02-24T08:41:21.869Z,53.17
2023-02-24T08:43:51.351Z,53.95
2023-02-24T08:46:33.615Z,53.70
2023-02-24T08:49:02.760Z,53.80
2023-02-24T08:51:37.763Z,53.44
2023-02-24T08:54:16.117Z,52.80
2023-02-24T08:56:49.965Z,52.26
2023-02-24T08:59:38.662Z,52.96
2023-02-24T09:02:25.773Z,54.05
2023-02-24T09:05:06.147Z,55.65
2023-02-24T09:07:44.378Z,55.77
2023-02-24T09:10:19.378Z,54.72
2023-02-24T09:12:49.950Z,55.98
2023-02-24T09:15:21.405Z,54.52
2023-02-24T09:18:02.147Z,56.39
2023-02-24T09:20:49.452Z,55.00
2023-02-24T09:23:21.114Z,54.37
2023-02-24T09:25:55.057Z,54.75
2023-02-24T09:28:30.037Z,54.12
2023-02-24T09:31:07.767Z,55.31
2023-02-24T09:33:44.747Z,53.87
2023-02-24T09:36:36.788Z,54.17
2023-02-24T09:39:05.749Z,53.02
2023-02-24T09:42:18.529Z,54.27
2023-02-24T09:44:56.456Z,56.19
2023-02-24T09:47:43.801Z,55.10
2023-02-24T09:50:46.924Z,55.59
2023-02-24T09:53:18.200Z,55.07
2023-02-24T09:56:28.829Z,57.19
2023-02-24T09:59:27.674Z,57.61
2023-02-24T10:02:15.037Z,59.71
2023-02-24T10:05:28.167Z,58.93
2023-02-24T10:07:58.879Z,59.71
2023-02-24T10:10:36.652Z,58.76
2023-02-24T10:13:31.010Z,59.65
2023-02-24T10:16:11.713Z,58.78
2023-02-24T10:19:15.548Z,59.76
2023-02-24T10:22:09.875Z,59.68
2023-02-24T10:24:48.918Z,60.40
2023-02-24T10:28:08.614Z,62.38
2023-02-24T10:31:27.007Z,62.89
2023-02-24T10:34:11.164Z,62.26
2023-02-24T10:36:41.680Z,63.58
2023-02-24T10:39:16.444Z,63.47
2023-02-24T10:41:58.059Z,65.40
2023-02-24T10:44:37.549Z,65.04
2023-02-24T10:47:13.833Z,63.39
2023-02-24T10:49:58.878Z,64.91
2023-02-24T10:52:38.308Z,63.46
2023-02-24T10:55:44.104Z,65.85
2023-02-24T10:58:53.808Z,59.48
2023-02-24T11:01:59.850Z,63.66
2023-02-24T11:05:05.453Z,61.74
2023-02-24T11:07:44.750Z,64.88
2023-02-24T11:10:15.793Z,66.83
2023-02-24T11:13:09.864Z,63.89
2023-02-24T11:16:04.790Z,68.20
2023-02-24T11:18:34.833Z,68.13
2023-02-24T11:21:08.335Z,67.21
2023-02-24T11:23:51.379Z,65.33
2023-02-24T11:26:46.473Z,64.40
2023-02-24T11:29:57.044Z,64.43
2023-02-24T11:33:12.991Z,64.54
2023-02-24T11:35:50.005Z,64.71
2023-02-24T11:38:43.795Z,67.66
2023-02-24T11:41:26.794Z,68.06
2023-02-24T11:44:35.456Z,70.23
2023-02-24T11:47:10.466Z,71.07
2023-02-24T11:50:22.468Z,73.46
2023-02-24T11:52:54.237Z,75.13
2023-02-24T11:55:44.821Z,75.64
2023-02-24T11:58:31.092Z,74.87
2023-02-24T12:01:11.536Z,72.91
2023-02-24T12:04:06.379Z,72.14
2023-02-24T12:06:44.785Z,76.30
2023-02-24T12:09:27.660Z,80.53
2023-02-24T12:12:24.420Z,73.52
2023-02-24T12:15:01.885Z,75.27
2023-02-24T12:18:05.112Z,77.35
2023-02-24T12:20:51.838Z,78.49
2023-02-24T12:23:24.905Z,79.70
2023-02-24T12:26:21.587Z,78.54
2023-02-24T12:28:59.046Z,79.61
2023-02-24T12:31:30.879Z,80.68
2023-02-24T12:34:13.264Z,81.07
2023-02-24T12:36:59.466Z,73.90
2023-02-24T12:39:55.839Z,74.30
2023-02-24T12:42:46.579Z,72.10
2023-02-24T12:45:27.213Z,75.34
2023-02-24T12:48:30.809Z,76.82
2023-02-24T12:51:25.422Z,79.33
2023-02-24T12:54:09.841Z,78.88
2023-02-24T12:56:58.435Z,73.95
2023-02-24T12:59:32.914Z,76.25
2023-02-24T13:02:09.198Z,72.29
2023-02-24T13:04:50.443Z,71.06
2023-02-24T13:07:37.928Z,73.15
2023-02-24T13:10:12.793Z,79.70
2023-02-24T13:12:56.787Z,80.07
2023-02-24T13:15:28.520Z,79.74
2023-02-24T13:17:58.436Z,85.68
2023-02-24T13:20:39.548Z,85.89
2023-02-24T13:23:35.667Z,92.37
2023-02-24T13:26:05.109Z,89.40
2023-02-24T13:28:39.410Z,92.53
2023-02-24T13:31:14.182Z,99.41
2023-02-24T13:33:49.266Z,100.00
2023-02-24T13:36:26.629Z,100.00
2023-02-24T13:39:07.507Z,100.00
2023-02-24T13:41:41.398Z,100.00
2023-02-24T13:44:30.766Z,100.00
2023-02-24T13:47:21.033Z,100.00
2023-02-24T13:50:30.237Z,100.00
2023-02-24T13:53:24.522Z,100.00
2023-02-24T13:56:27.759Z,100.00
2023-02-24T13:59:14.813Z,100.00
2023-02-24T14:02:03.015Z,100.00
2023-02-24T14:04:34.658Z,100.00
2023-02-24T14:07:38.418Z,100.00
2023-02-24T14:10:22.299Z,100.00
2023-02-24T14:12:57.204Z,100.00
2023-02-24T14:15:28.834Z,100.00
2023-02-24T14:18:06.437Z,100.00
2023-02-24T14:20:38.837Z,100.00
2023-02-24T14:23:24.257Z,100.00
2023-02-24T14:26:13.471Z,100.00
2023-02-24T14:28:43.532Z,100.00
2023-02-24T14:31:17.731Z,100.00
2023-02-24T14:33:47.204Z,100.00
2023-02-24T14:36:20.843Z,100.00
2023-02-24T14:39:14.888Z,100.00
2023-02-24T14:41:44.634Z,100.00
2023-02-24T14:44:27.300Z,100.00
2023-02-24T14:47:00.681Z,100.00
2023-02-24T14:49:35.360Z,100.00
2023-02-24T14:52:32.887Z,100.00
2023-02-24T14:55:28.892Z,100.00
2023-02-24T14:58:07.734Z,100.00
2023-02-24T15:00:42.675Z,100.00
2023-02-24T15:03:23.061Z,100.00
2023-02-24T15:05:55.846Z,100.00
2023-02-24T15:08:39.842Z,100.00
2023-02-24T15:11:17.842Z,100.00
2023-02-24T15:14:02.577Z,100.00
2023-02-24T15:16:39.363Z,100.00
2023-02-24T15:19:32.837Z,100.00
2023-02-24T15:22:03.166Z,100.00
2023-02-24T15:24:35.895Z,100.00
2023-02-24T15:27:29.073Z,100.00
2023-02-24T15:30:07.748Z,100.00
2023-02-24T15:32:41.890Z,100.00
2023-02-24T15:35:27.604Z,100.00
2023-02-24T15:37:56.950Z,100.00
2023-02-24T15:40:27.983Z,100.00
2023-02-24T15:43:12.737Z,100.00
2023-02-24T15:45:41.686Z,100.00
2023-02-24T15:48:31.407Z,100.00
2023-02-24T15:51:06.670Z,100.00
2023-02-24T15:53:35.661Z,100.00
2023-02-24T15:56:04.625Z,100.00
2023-02-24T15:58:35.533Z,100.00
2023-02-24T16:01:07.073Z,100.00
2023-02-24T16:03:36.311Z,100.00
2023-02-24T16:06:05.535Z,100.00
2023-02-24T16:08:45.384Z,100.00
2023-02-24T16:11:18.019Z,100.00
2023-02-24T16:13:55.249Z,100.00
2023-02-24T16:16:25.781Z,100.00
2023-02-24T16:18:55.220Z,100.00
2023-02-24T16:21:24.326Z,100.00
2023-02-24T16:23:53.722Z,100.00
2023-02-24T16:26:28.921Z,100.00
2023-02-24T16:29:02.224Z,100.00
2023-02-24T16:31:33.893Z,100.00
2023-02-24T16:34:03.163Z,100.00
2023-02-24T16:36:32.632Z,100.00
2023-02-24T16:39:02.785Z,100.00
2023-02-24T16:41:32.194Z,100.00
2023-02-24T16:44:01.203Z,100.00
2023-02-24T16:46:38.467Z,100.00
2023-02-24T16:49:13.195Z,100.00
2023-02-24T16:51:42.389Z,100.00
2023-02-24T16:54:11.279Z,100.00
2023-02-24T16:56:40.250Z,100.00
2023-02-24T16:59:09.435Z,100.00
2023-02-24T17:01:38.746Z,100.00
2023-02-24T17:04:10.601Z,100.00
2023-02-24T17:06:39.535Z,100.00
2023-02-24T17:09:09.260Z,100.00
2023-02-24T17:11:38.326Z,100.00
2023-02-24T17:14:10.951Z,100.00
2023-02-24T17:16:45.380Z,100.00
2023-02-24T17:19:14.991Z,100.00
2023-02-24T17:21:46.105Z,100.00
2023-02-24T17:24:18.231Z,100.00
2023-02-24T17:26:47.757Z,100.00
2023-02-24T17:29:16.713Z,78.74
2023-02-24T17:31:45.912Z,89.56
2023-02-24T17:34:15.182Z,88.17
2023-02-24T17:36:44.038Z,82.58
2023-02-24T17:39:15.394Z,74.92
2023-02-24T17:41:44.586Z,76.92
2023-02-24T17:44:13.539Z,74.22
2023-02-24T17:46:42.697Z,69.99
2023-02-24T17:49:11.712Z,64.39
2023-02-24T17:51:40.670Z,61.36
2023-02-24T17:54:09.863Z,63.07
2023-02-24T17:56:38.831Z,65.91
2023-02-24T17:59:07.693Z,59.96
2023-02-24T18:01:36.648Z,61.43
2023-02-24T18:04:08.345Z,60.22
2023-02-24T18:06:37.591Z,59.35
2023-02-24T18:09:09.082Z,59.16
2023-02-24T18:11:40.661Z,62.88
2023-02-24T18:14:09.622Z,59.40
2023-02-24T18:16:41.154Z,58.62
2023-02-24T18:19:12.673Z,55.41
2023-02-24T18:21:41.694Z,57.08
2023-02-24T18:24:10.822Z,59.47
2023-02-24T18:26:42.840Z,59.00
2023-02-24T18:29:11.840Z,57.95
2023-02-24T18:31:40.915Z,58.85
2023-02-24T18:34:10.070Z,58.06
2023-02-24T18:46:22.561Z,57.22
2023-02-24T18:48:57.654Z,51.76
2023-02-24T18:51:27.649Z,52.76
2023-02-24T18:53:59.421Z,53.97
2023-02-24T18:56:31.581Z,53.78
2023-02-24T18:59:06.215Z,55.57
2023-02-24T19:01:43.590Z,56.55
2023-02-24T19:04:27.261Z,55.89
2023-02-24T19:06:56.857Z,56.22
2023-02-24T19:09:26.004Z,57.40
2023-02-24T19:11:55.050Z,57.56
2023-02-24T19:14:29.572Z,54.44
2023-02-24T19:17:05.689Z,55.01
2023-02-24T19:19:35.360Z,52.47
2023-02-24T19:22:04.815Z,51.05
2023-02-24T19:24:34.003Z,52.01
2023-02-24T19:27:02.975Z,50.66
2023-02-24T19:29:31.950Z,51.76
2023-02-24T19:32:01.165Z,50.96
2023-02-24T19:34:30.187Z,48.81
2023-02-24T19:36:59.319Z,48.37
2023-02-24T19:39:30.696Z,47.64
2023-02-24T19:41:59.764Z,47.12
2023-02-24T19:44:30.966Z,47.67
2023-02-24T19:47:00.003Z,48.18
2023-02-24T19:49:29.080Z,48.16
2023-02-24T19:52:00.064Z,49.45
2023-02-24T19:54:30.915Z,48.82
2023-02-24T19:56:59.933Z,49.56
2023-02-24T19:59:30.022Z,48.26
2023-02-24T20:01:59.006Z,46.28
2023-02-24T20:04:28.076Z,46.75
2023-02-24T20:06:57.370Z,46.63
2023-02-24T20:09:27.748Z,48.34
2023-02-24T20:12:05.956Z,46.72
2023-02-24T20:14:34.950Z,46.33
2023-02-24T20:17:03.931Z,46.62
2023-02-24T20:19:34.383Z,44.83
2023-02-24T20:22:03.583Z,44.89
2023-02-24T20:24:35.897Z,46.33
2023-02-24T20:27:06.697Z,46.64
2023-02-24T20:29:38.828Z,48.19
2023-02-24T20:32:08.199Z,45.87
2023-02-24T20:34:38.835Z,46.63
2023-02-24T20:37:07.917Z,46.76
2023-02-24T20:39:37.294Z,46.66
2023-02-24T20:42:06.703Z,46.02
2023-02-24T20:44:35.663Z,45.13
2023-02-24T20:47:07.179Z,45.76
2023-02-24T20:49:45.224Z,46.83
2023-02-24T20:52:14.490Z,45.59
2023-02-24T20:54:55.089Z,45.47
2023-02-24T20:57:24.080Z,43.93
2023-02-24T21:00:03.048Z,43.02
2023-02-24T21:02:32.642Z,42.85
2023-02-24T21:05:01.985Z,44.09
2023-02-24T21:07:34.743Z,42.28
2023-02-24T21:10:04.997Z,44.44
2023-02-24T21:12:34.263Z,43.38
2023-02-24T21:15:04.276Z,43.06
2023-02-24T21:17:35.146Z,42.87
2023-02-24T21:20:04.321Z,43.51
2023-02-24T21:22:34.190Z,42.03
2023-02-24T21:25:03.370Z,42.98
2023-02-24T21:27:32.248Z,41.81
2023-02-24T21:30:01.341Z,42.33
2023-02-24T21:32:30.300Z,41.05
2023-02-24T21:34:59.397Z,41.88
2023-02-24T21:37:29.008Z,43.01
2023-02-24T21:39:57.941Z,43.66
2023-02-24T21:42:29.506Z,40.86
2023-02-24T21:45:03.114Z,42.28
2023-02-24T21:47:32.903Z,41.88
2023-02-24T21:50:04.902Z,41.93
2023-02-24T21:52:37.133Z,41.68
2023-02-24T21:55:07.731Z,41.00
2023-02-24T21:57:41.377Z,40.33
2023-02-24T22:00:21.662Z,39.70
2023-02-24T22:02:55.261Z,39.85
2023-02-24T22:05:32.473Z,40.60
2023-02-24T22:08:01.549Z,39.01
2023-02-24T22:10:30.514Z,40.86
2023-02-24T22:12:59.572Z,40.21
2023-02-24T22:15:28.704Z,40.47
2023-02-24T22:17:58.699Z,39.34
2023-02-24T22:20:27.636Z,41.17
2023-02-24T22:22:56.551Z,39.97
2023-02-24T22:25:25.657Z,37.86
2023-02-24T22:27:54.830Z,39.44
2023-02-24T22:30:23.933Z,38.89
2023-02-24T22:32:53.328Z,40.52
2023-02-24T22:35:22.294Z,40.29
2023-02-24T22:37:51.332Z,40.08
2023-02-24T22:40:20.896Z,39.78
2023-02-24T22:42:50.377Z,39.28
2023-02-24T22:45:21.498Z,40.45
2023-02-24T22:47:50.446Z,40.51
2023-02-24T22:50:20.500Z,39.77
2023-02-24T22:52:50.051Z,40.94
2023-02-24T22:55:20.466Z,40.24
2023-02-24T22:57:49.422Z,39.67
2023-02-24T23:00:22.252Z,41.55
2023-02-24T23:02:51.317Z,40.28
2023-02-24T23:05:20.254Z,41.08
2023-02-24T23:07:49.325Z,41.68
2023-02-24T23:10:18.546Z,39.81
2023-02-24T23:12:47.746Z,40.42
2023-02-24T23:15:17.262Z,40.71
2023-02-24T23:17:46.237Z,41.10
2023-02-24T23:20:15.094Z,42.08
2023-02-24T23:22:44.256Z,42.22
2023-02-24T23:25:15.599Z,42.05
2023-02-24T23:27:44.909Z,42.13
2023-02-24T23:30:14.072Z,43.43
2023-02-24T23:32:45.782Z,44.20
2023-02-24T23:35:17.910Z,44.30
2023-02-24T23:37:48.485Z,44.70
2023-02-24T23:40:17.508Z,43.26
2023-02-24T23:42:47.175Z,43.43
2023-02-24T23:45:16.213Z,44.56
2023-02-24T23:47:47.201Z,43.35
2023-02-24T23:50:18.321Z,44.37
2023-02-24T23:52:47.187Z,43.91
2023-02-24T23:55:16.805Z,41.96
2023-02-24T23:57:45.769Z,42.37
